18 augustus 2022

Tijd Code Weer Temp. Zicht Plafond Wind METAR/SPECI
20:30
V
23 °C 10 km+ - 260° 260° 18 kt METAR LFCK 181830Z AUTO 26018KT CAVOK 23/15 Q1016 NOSIG
20:00
V
24 °C 10 km+ - 290° 290° 14 kt METAR LFCK 181800Z AUTO 29014KT CAVOK 24/12 Q1016 NOSIG
19:30
V
24 °C 10 km+ - 290° 290° 15 kt METAR LFCK 181730Z AUTO 29015KT CAVOK 24/12 Q1016 NOSIG
19:00
V
24 °C 10 km+ - 300° 300° 15 kt METAR LFCK 181700Z AUTO 30015KT CAVOK 24/12 Q1016 NOSIG
18:30
V
25 °C 10 km+ - 290° 290° 14 kt METAR LFCK 181630Z AUTO 29014KT CAVOK 25/12 Q1016 NOSIG
18:00
V
24 °C 10 km+ - 280° 280° 10 kt METAR LFCK 181600Z AUTO 28010KT CAVOK 24/13 Q1016 TEMPO SCT040TCU
17:30
V
24 °C 10 km+ - 270° 270° 13 kt METAR LFCK 181530Z AUTO 27013KT 240V300 CAVOK 24/15 Q1016 TEMPO SCT040TCU
17:00
V
24 °C 10 km+ - 310° 310° 13 kt METAR LFCK 181500Z AUTO 31013KT CAVOK 24/12 Q1016 TEMPO SCT040TCU
16:30
V
25 °C 10 km+ - 300° 300° 15 kt METAR LFCK 181430Z AUTO 30015KT 270V330 CAVOK 25/13 Q1016 TEMPO SCT035TCU SCT040
16:00
V
24 °C 10 km+ 6.600 ft 310° 310° 17 kt METAR LFCK 181400Z AUTO 31017KT 9999 FEW048/// BKN066/// BKN090/// ///TCU 24/12 Q1016 NOSIG
15:30
V
24 °C 10 km+ - 290° 290° 14 kt METAR LFCK 181330Z AUTO 29014KT CAVOK 24/12 Q1016 TEMPO SCT035TCU SCT040
15:00
V
24 °C 10 km+ 5.600 ft 300° 300° 14 kt METAR LFCK 181300Z AUTO 30014KT 9999 FEW047 BKN056 BKN068 24/13 Q1016 TEMPO SCT035TCU SCT040
14:30
V
23 °C 10 km+ 4.900 ft 300° 300° 14 kt METAR LFCK 181230Z AUTO 30014KT 9999 BKN049 BKN064 OVC080 23/12 Q1016 TEMPO SCT035TCU SCT040
14:00
V
23 °C 10 km+ 5.400 ft 320° 320° 10 kt METAR LFCK 181200Z AUTO 32010KT 290V350 9999 SCT046 BKN054 BKN064 23/12 Q1016 TEMPO SCT035TCU SCT040
13:30
V
23 °C 10 km+ 4.500 ft 310° 310° 13 kt METAR LFCK 181130Z AUTO 31013KT 280V340 9999 FEW037 BKN045 BKN058 23/13 Q1016 BECMG SCT025TCU SCT030
13:00
V
22 °C 10 km+ 4.300 ft 290° 290° 11 kt METAR LFCK 181100Z AUTO 29011KT 260V320 9999 SCT035/// BKN043/// BKN050/// ///TCU 22/13 Q1016 NOSIG
12:30
V
21 °C 10 km+ 3.100 ft 300° 300° 11 kt METAR LFCK 181030Z AUTO 30011KT 9999 BKN031 BKN039 OVC076 21/14 Q1016 BECMG SCT025TCU SCT030
12:00
V
21 °C 10 km+ 3.100 ft 300° 300° 8 kt METAR LFCK 181000Z AUTO 30008KT 260V340 9999 SCT022 BKN031 BKN046 21/14 Q1016 BECMG SCT025TCU SCT030
11:30
M
19 °C 10 km+ 1.800 ft 290° 290° 7 kt METAR LFCK 180930Z AUTO 29007KT 260V320 9999 BKN018 OVC027 19/15 Q1016 BECMG SCT025TCU SCT030
11:00
M
19 °C 10 km+ 1.300 ft 300° 300° 10 kt METAR LFCK 180900Z AUTO 30010KT 9999 BKN013 BKN018 OVC035 19/15 Q1016 BECMG SCT025TCU SCT030
10:30
I
18 °C 10 km+ 900 ft 290° 290° 10 kt METAR LFCK 180830Z AUTO 29010KT 9999 BKN009 BKN014 BKN019 18/16 Q1016 BECMG SCT020TCU BKN050
10:00
M
18 °C 10 km+ 1.600 ft 280° 280° 9 kt METAR LFCK 180800Z AUTO 28009KT 9999 FEW009 BKN016 BKN023 18/16 Q1016 BECMG SCT020TCU BKN050
09:30
M
18 °C 10 km+ 1.400 ft 290° 290° 9 kt METAR LFCK 180730Z AUTO 29009KT 9999 BKN014/// OVC021/// ///TCU 18/15 Q1016 TEMPO BKN016
09:00
M
18 °C 10 km+ 1.400 ft 300° 300° 8 kt METAR LFCK 180700Z AUTO 30008KT 9999 OVC014 18/15 Q1016 BECMG BKN016
08:30
M
18 °C 10 km+ 1.000 ft 290° 290° 10 kt METAR LFCK 180630Z AUTO 29010KT 9999 BKN010 OVC015 18/15 Q1016 BECMG BKN016
08:00
M
18 °C 10 km+ 1.200 ft 300° 300° 11 kt METAR LFCK 180600Z AUTO 30011KT 9999 BKN012 OVC017 18/15 Q1015 BECMG BKN016
07:30
M
18 °C 10 km+ 1.100 ft 300° 300° 12 kt METAR LFCK 180530Z AUTO 30012KT 9999 OVC011 18/15 Q1015
07:00
M
18 °C 10 km+ 1.100 ft 300° 300° 12 kt METAR LFCK 180500Z AUTO 30012KT 9999 OVC011 18/15 Q1015
06:30
M
18 °C 10 km+ 1.200 ft 290° 290° 11 kt METAR LFCK 180430Z AUTO 29011KT 9999 OVC012 18/15 Q1015
06:00
M
18 °C 10 km+ 1.200 ft 300° 300° 11 kt METAR LFCK 180400Z AUTO 30011KT 9999 OVC012 18/15 Q1015
05:30
M
18 °C 10 km+ 1.200 ft 300° 300° 9 kt METAR LFCK 180330Z AUTO 30009KT 9999 OVC012 18/15 Q1015
05:00
M
18 °C 10 km+ 1.300 ft 290° 290° 10 kt METAR LFCK 180300Z AUTO 29010KT 9999 OVC013 18/15 Q1015
04:30
M
18 °C 10 km+ 1.300 ft 270° 270° 9 kt METAR LFCK 180230Z AUTO 27009KT 9999 OVC013 18/16 Q1015
04:00
M
18 °C 10 km+ 1.400 ft 270° 270° 9 kt METAR LFCK 180200Z AUTO 27009KT 9999 OVC014 18/16 Q1015
03:30
M
18 °C 10 km+ 1.600 ft 270° 270° 10 kt METAR LFCK 180130Z AUTO 27010KT 9999 BKN016 BKN025 BKN040 18/16 Q1015
03:00
M
19 °C 10 km+ 2.100 ft 260° 260° 10 kt METAR LFCK 180100Z AUTO 26010KT 9999 OVC021 19/16 Q1015
02:30
M
19 °C 10 km+ 2.600 ft 260° 260° 10 kt METAR LFCK 180030Z AUTO 26010KT 9999 BKN026 BKN035 OVC043 19/15 Q1016
02:00
V
20 °C 10 km+ 3.400 ft 260° 260° 11 kt METAR LFCK 180000Z AUTO 26011KT 9999 BKN034 OVC044 20/15 Q1015
01:30
V
21 °C 10 km+ 3.400 ft 300° 300° 6 kt METAR LFCK 172330Z AUTO 30006KT 9999 BKN034/// BKN100/// OVC130/// ///CB 21/14 Q1016
01:00
V
21 °C 10 km+ - 290° 290° 8 kt METAR LFCK 172300Z AUTO 29008KT 9999 ///TCU 21/14 Q1016
00:30
V
21 °C 10 km+ - 300° 300° 9 kt METAR LFCK 172230Z AUTO 30009KT CAVOK 21/14 Q1016
00:00
V
21 °C 10 km+ 5.600 ft 300° 300° 10 kt METAR LFCK 172200Z AUTO 30010KT 9999 FEW048/// BKN056/// OVC078/// ///CB 21/14 Q1016

17 augustus 2022

Tijd Code Weer Temp. Zicht Plafond Wind METAR/SPECI
23:30
V
22 °C 10 km+ 5.800 ft 300° 300° 12 kt METAR LFCK 172130Z AUTO 30012KT 9999 SCT046/// BKN058/// OVC076/// ///TCU 22/13 Q1016
23:00
V
22 °C 10 km+ 6.600 ft 300° 300° 10 kt METAR LFCK 172100Z AUTO 30010KT 9999 FEW048 SCT054 BKN066 22/14 Q1015 NOSIG
22:30
V
22 °C 10 km+ 7.800 ft 300° 300° 15 kt METAR LFCK 172030Z AUTO 30015KT 9999 FEW048 SCT068 OVC078 22/14 Q1014 NOSIG
22:00
V
23 °C 10 km+ - 300° 300° 13 kt METAR LFCK 172000Z AUTO 30013KT CAVOK 23/14 Q1014 TEMPO FEW045CB
21:30
V
24 °C 10 km+ - 290° 290° 13 kt METAR LFCK 171930Z AUTO 29013KT CAVOK 24/13 Q1013 TEMPO FEW045CB
21:00
V
24 °C 10 km+ - 290° 290° 9 kt METAR LFCK 171900Z AUTO 29009KT CAVOK 24/13 Q1013 TEMPO FEW045CB
20:30
V
24 °C 10 km+ - 280° 280° 8 kt METAR LFCK 171830Z AUTO 28008KT CAVOK 24/14 Q1013 TEMPO FEW045CB
20:00
V
24 °C 10 km+ - 290° 290° 5 kt METAR LFCK 171800Z AUTO 29005KT CAVOK 24/14 Q1013 TEMPO FEW045CB
19:30
V
24 °C 10 km+ - 300° 300° 9 kt METAR LFCK 171730Z AUTO 30009KT CAVOK 24/14 Q1012 TEMPO FEW045CB
19:00
V
24 °C 10 km+ - 300° 300° 9 kt METAR LFCK 171700Z AUTO 30009KT CAVOK 24/14 Q1013 TEMPO FEW045CB
18:30
V
24 °C 10 km+ 4.900 ft 280° 280° 8 kt METAR LFCK 171630Z AUTO 28008KT 9999 OVC049 24/14 Q1012 TEMPO FEW045CB
18:00
V
24 °C 10 km+ 4.400 ft 270° 270° 7 kt METAR LFCK 171600Z AUTO 27007KT 220V310 9999 OVC044 24/14 Q1012 TEMPO FEW045CB
17:30
V
23 °C 10 km+ 4.100 ft Var Var 3 kt METAR LFCK 171530Z AUTO VRB03KT 9999 BKN041 OVC049 23/16 Q1012 TEMPO FEW045CB
17:00
V
23 °C 10 km+ 4.400 ft 360° 360° 5 kt METAR LFCK 171500Z AUTO 36005KT 320V050 9999 BKN044 BKN058 BKN130 23/16 Q1012 TEMPO FEW045CB
16:30
V
23 °C 10 km+ 3.500 ft 280° 280° 6 kt METAR LFCK 171430Z AUTO 28006KT 9999 BKN035 BKN043 OVC052 23/16 Q1012 TEMPO FEW045CB
16:00
V
23 °C 10 km+ 3.400 ft 280° 280° 8 kt METAR LFCK 171400Z AUTO 28008KT 9999 OVC034 23/16 Q1012 TEMPO FEW045CB
15:30
M
22 °C 10 km+ 2.700 ft 280° 280° 7 kt METAR LFCK 171330Z AUTO 28007KT 250V330 9999 OVC027 22/16 Q1012 TEMPO FEW045CB
15:00
M
22 °C 10 km+ 2.400 ft 310° 310° 7 kt METAR LFCK 171300Z AUTO 31007KT 280V350 9999 OVC024 22/16 Q1012 TEMPO FEW045CB
14:30
M
21 °C 10 km+ 2.100 ft 310° 310° 6 kt METAR LFCK 171230Z AUTO 31006KT 280V360 9999 OVC021 21/16 Q1012 TEMPO FEW045CB
14:00
M
21 °C 10 km+ 1.800 ft 310° 310° 5 kt METAR LFCK 171200Z AUTO 31005KT 230V350 9999 OVC018/// ///TCU 21/16 Q1013 BECMG SCT020
13:30
M
20 °C 10 km+ 1.800 ft 300° 300° 5 kt METAR LFCK 171130Z AUTO 30005KT 260V350 9999 OVC018/// ///TCU 20/16 Q1013 BECMG NSC
13:00
M
20 °C 10 km+ 1.500 ft 320° 320° 5 kt METAR LFCK 171100Z AUTO 32005KT 270V350 9999 OVC015 20/16 Q1013 NOSIG
12:30
M
20 °C 10 km+ 1.400 ft 260° 260° 4 kt METAR LFCK 171030Z AUTO 26004KT 220V290 9999 OVC014 20/16 Q1013 BECMG NSC
12:00
M
19 °C 10 km+ 1.200 ft 270° 270° 4 kt METAR LFCK 171000Z AUTO 27004KT 240V330 9999 OVC012 19/16 Q1013 BECMG SCT020
11:30
M
19 °C 10 km+ 1.000 ft 300° 300° 5 kt METAR LFCK 170930Z AUTO 30005KT 270V330 9999 OVC010 19/16 Q1013 BECMG SCT020
11:00
M
19 °C 10 km+ 1.200 ft Var Var 2 kt METAR LFCK 170900Z AUTO VRB02KT 9999 OVC012 19/16 Q1013 BECMG SCT020
10:30
M
18 °C 10 km+ 1.100 ft Var Var 3 kt METAR LFCK 170830Z AUTO VRB03KT 9999 OVC011 18/16 Q1013 BECMG SCT020
10:00
I
18 °C 10 km+ 900 ft 260° 260° 3 kt METAR LFCK 170800Z AUTO 26003KT 9999 OVC009 18/16 Q1013 BECMG SCT020
09:30
I
18 °C 10 km+ 900 ft 270° 270° 5 kt METAR LFCK 170730Z AUTO 27005KT 9999 OVC009 18/16 Q1013 BECMG SCT020
09:00
M
18 °C 10 km+ 1.000 ft 280° 280° 5 kt METAR LFCK 170700Z AUTO 28005KT 9999 OVC010 18/16 Q1012 NOSIG
08:30
M
18 °C 10 km+ 1.000 ft 280° 280° 3 kt METAR LFCK 170630Z AUTO 28003KT 9999 OVC010 18/16 Q1012 NOSIG
08:00
M
18 °C 10 km+ 1.000 ft 270° 270° 4 kt METAR LFCK 170600Z AUTO 27004KT 9999 OVC010 18/16 Q1012
07:30
M
18 °C 10 km+ 1.100 ft 280° 280° 3 kt METAR LFCK 170530Z AUTO 28003KT 250V310 9999 OVC011 18/16 Q1012
07:00
M
18 °C 10 km+ 1.100 ft 270° 270° 3 kt METAR LFCK 170500Z AUTO 27003KT 9999 OVC011 18/16 Q1012
06:30
I
18 °C 10 km+ 900 ft 280° 280° 4 kt METAR LFCK 170430Z AUTO 28004KT 250V320 9999 BKN009 BKN018 OVC042 18/16 Q1012
06:00
I
18 °C 10 km+ 700 ft 280° 280° 9 kt METAR LFCK 170400Z AUTO 28009KT 9999 BKN007 BKN012 BKN018 18/16 Q1012
05:30
M
18 °C 10 km+ 2.300 ft 280° 280° 6 kt METAR LFCK 170330Z AUTO 28006KT 9999 BKN023 18/16 Q1012
05:00
M
19 °C 10 km+ 2.300 ft 280° 280° 5 kt METAR LFCK 170300Z AUTO 28005KT 9999 BKN023 19/16 Q1012
04:30
V
19 °C 10 km+ 4.400 ft 280° 280° 4 kt METAR LFCK 170230Z AUTO 28004KT 9999 SCT023 BKN044 19/17 Q1011
04:00
V
18 °C 10 km+ 4.300 ft Var Var 3 kt METAR LFCK 170200Z AUTO VRB03KT 9999 FEW026 BKN043 BKN140 18/17 Q1012 NOSIG
03:30
V
18 °C 10 km+ 14.000 ft 170° 170° 5 kt METAR LFCK 170130Z AUTO 17005KT 9999 FEW041 OVC140 18/16 Q1011 NOSIG
03:00
V
19 °C 10 km+ 3.600 ft Var Var 2 kt METAR LFCK 170100Z AUTO VRB02KT 9999 OVC036/// ///CB 19/17 Q1012 BECMG SCT040
02:30
V
19 °C 10 km+ 3.000 ft 260° 260° 3 kt METAR LFCK 170030Z AUTO 26003KT 9999 BKN030 BKN035 BKN072 19/17 Q1012 NOSIG
02:00
V
18 °C 10 km+ - 170° 170° 5 kt METAR LFCK 170000Z AUTO 17005KT 150V210 CAVOK 18/17 Q1011 TEMPO 28015G25KT BKN013 BKN040 FEW060CB
01:30
V
18 °C 10 km+ - Var Var 2 kt METAR LFCK 162330Z AUTO VRB02KT CAVOK 18/16 Q1010 TEMPO 28015G25KT BKN013 BKN040 FEW060CB
01:00
V
19 °C 10 km+ - 140° 140° 5 kt METAR LFCK 162300Z AUTO 14005KT 110V180 CAVOK 19/17 Q1010 TEMPO 28015G25KT BKN013 BKN040 FEW060CB
00:30
V
19 °C 10 km+ - 150° 150° 5 kt METAR LFCK 162230Z AUTO 15005KT CAVOK 19/17 Q1010 TEMPO 28015G25KT BKN013 BKN040 FEW060CB
00:00
V
19 °C 10 km+ - 150° 150° 6 kt METAR LFCK 162200Z AUTO 15006KT CAVOK 19/17 Q1010 TEMPO 28015G25KT BKN013 BKN040 FEW060CB

16 augustus 2022

Tijd Code Weer Temp. Zicht Plafond Wind METAR/SPECI
23:30
V
19 °C 10 km+ - 130° 130° 6 kt METAR LFCK 162130Z AUTO 13006KT CAVOK 19/17 Q1010 TEMPO 28015G25KT BKN013 BKN040 FEW060CB
23:00
V
19 °C 10 km+ - 140° 140° 4 kt METAR LFCK 162100Z AUTO 14004KT CAVOK 19/17 Q1011 TEMPO 28015G25KT BKN013 BKN040 FEW060CB
22:30
V
20 °C 10 km+ - 130° 130° 5 kt METAR LFCK 162030Z AUTO 13005KT CAVOK 20/18 Q1011 TEMPO 28015G25KT BKN013 BKN040 FEW060CB
22:00
V
21 °C 10 km+ - 140° 140° 3 kt METAR LFCK 162000Z AUTO 14003KT CAVOK 21/18 Q1010 NOSIG
21:30
V
21 °C 10 km+ - 140° 140° 4 kt METAR LFCK 161930Z AUTO 14004KT 120V180 CAVOK 21/18 Q1010 NOSIG
21:00
V
22 °C 10 km+ - 190° 190° 3 kt METAR LFCK 161900Z AUTO 19003KT 160V220 CAVOK 22/18 Q1009 NOSIG
20:30
V
23 °C 10 km+ - 160° 160° 5 kt METAR LFCK 161830Z AUTO 16005KT CAVOK 23/19 Q1009 NOSIG
20:00
V
23 °C 10 km+ 12.000 ft 170° 170° 4 kt METAR LFCK 161800Z AUTO 17004KT 140V200 9999 FEW041/// SCT098/// BKN120/// ///TCU 23/19 Q1009 BECMG SCT040
19:30
V
23 °C 10 km+ 11.000 ft 130° 130° 7 kt METAR LFCK 161730Z AUTO 13007KT 100V170 9999 FEW048/// SCT068/// BKN110/// ///CB 23/19 Q1009 NOSIG
19:00
V
23 °C 10 km+ - 140° 140° 7 kt METAR LFCK 161700Z AUTO 14007KT 9999 VCTS ///CB 23/19 Q1009 TEMPO VRB20G30KT 4000 TSRA
18:30
V
24 °C 10 km+ - 160° 160° 7 kt METAR LFCK 161630Z AUTO 16007KT 9999 TS ///CB 24/19 Q1009 TEMPO VRB20G30KT 4000 TSRA
18:00
V
22 °C 10 km+ 8.400 ft 070° 070° 5 kt METAR LFCK 161600Z AUTO 07005KT 040V100 9999 VCTS FEW033/// BKN084/// BKN120/// ///CB 22/19 Q1009 TEMPO VRB20G30KT 4000 TSRA
17:30
I
23 °C 1,7 km - 260° 260° 12 kt METAR LFCK 161530Z AUTO 26012KT 6000 1700 RA ///CB 23/19 Q1009 TEMPO VRB20G30KT 4000 TSRA
17:00
V
29 °C 10 km+ - 110° 110° 16 kt METAR LFCK 161500Z AUTO 11016KT 080V140 9999 ///CB 29/16 Q1007 TEMPO VRB25G40KT 2000
Oudere gegevens

Met cookies volgen wij en derde partijen jouw internetgedrag binnen onze site. Als je verdergaat gaan we ervan uit dat je dit goedvindt. Meer info